Time;durP1;ratioP1;P1;durP2;ratioP2;P2;SDS_P1;SDS_P2;PMS_P1;PMS_P2;Temp;Humidity;BMP_temperature;BMP_pressure;BME280_temperature;BME280_humidity;BME280_pressure;Samples;Min_cycle;Max_cycle;Signal;HPM_P1;HPM_P2
2022/06/15 00:00:37;;;;;;;3.05;1.60;;;16.40;91.80;;;;;;4948707;28;20471;-33
2022/06/15 00:03:03;;;;;;;2.25;1.60;;;16.40;91.80;;;;;;4948779;28;20063;-34
2022/06/15 00:05:29;;;;;;;2.55;1.80;;;16.40;91.80;;;;;;4947833;28;20066;-34
2022/06/15 00:07:54;;;;;;;1.70;1.50;;;16.40;91.80;;;;;;4948953;28;20030;-34
2022/06/15 00:10:21;;;;;;;1.90;1.40;;;16.40;91.80;;;;;;4949203;29;20050;-33
2022/06/15 00:12:47;;;;;;;2.63;1.40;;;16.40;91.80;;;;;;4947731;29;20493;-34
2022/06/15 00:15:13;;;;;;;5.40;1.60;;;16.40;91.80;;;;;;4948797;28;20038;-34
2022/06/15 00:17:39;;;;;;;1.85;1.70;;;16.40;91.90;;;;;;4948906;29;20062;-34
2022/06/15 00:20:05;;;;;;;3.15;1.65;;;16.40;91.90;;;;;;4948121;28;20138;-33
2022/06/15 00:22:31;;;;;;;3.60;1.60;;;16.30;91.90;;;;;;4948814;29;20019;-35
2022/06/15 00:24:56;;;;;;;2.40;1.52;;;16.30;92.20;;;;;;4948604;29;20489;-33
2022/06/15 00:27:22;;;;;;;2.80;1.42;;;16.30;92.00;;;;;;4948050;28;20037;-35
2022/06/15 00:29:47;;;;;;;3.45;1.65;;;16.30;92.00;;;;;;4948883;29;20043;-35
2022/06/15 00:32:13;;;;;;;2.55;1.50;;;16.30;92.10;;;;;;4948564;28;20435;-34
2022/06/15 00:34:39;;;;;;;3.30;1.77;;;16.20;92.10;;;;;;4947309;28;20549;-33
2022/06/15 00:37:05;;;;;;;2.10;1.58;;;16.30;92.10;;;;;;4948548;29;20027;-34
2022/06/15 00:39:32;;;;;;;3.90;2.20;;;16.20;92.20;;;;;;4947630;28;20038;-35
2022/06/15 00:41:59;;;;;;;4.18;1.92;;;16.20;92.20;;;;;;4947675;28;20810;-34
2022/06/15 00:44:24;;;;;;;1.70;1.58;;;16.20;92.30;;;;;;4947511;29;20031;-34
2022/06/15 00:47:17;;;;;;;3.15;1.55;;;16.10;92.30;;;;;;4948537;29;20490;-34
2022/06/15 00:49:56;;;;;;;2.65;1.60;;;16.00;92.40;;;;;;4944802;29;20129;-34
2022/06/15 00:52:32;;;;;;;3.60;2.10;;;16.10;92.40;;;;;;4948194;28;20035;-33
2022/06/15 00:54:58;;;;;;;2.85;1.67;;;16.00;92.50;;;;;;4947500;28;20038;-34
2022/06/15 00:57:25;;;;;;;3.25;1.90;;;15.90;92.50;;;;;;4947749;28;20027;-34
2022/06/15 00:59:57;;;;;;;3.25;1.90;;;15.90;92.60;;;;;;4947755;29;20067;-34
2022/06/15 01:02:24;;;;;;;2.50;1.60;;;15.90;92.70;;;;;;4947398;28;20069;-33
2022/06/15 01:05:10;;;;;;;4.20;1.75;;;15.90;92.70;;;;;;4947620;28;20061;-34
2022/06/15 01:08:09;;;;;;;4.00;1.98;;;15.90;92.80;;;;;;4947223;28;20086;-33
2022/06/15 01:10:52;;;;;;;3.53;1.58;;;15.80;92.90;;;;;;4938643;28;20385;-33
2022/06/15 01:13:44;;;;;;;3.42;1.70;;;15.70;92.90;;;;;;4947667;29;20121;-33
2022/06/15 01:16:24;;;;;;;2.97;1.52;;;15.70;93.00;;;;;;4947300;29;20114;-33
2022/06/15 01:19:31;;;;;;;3.97;1.90;;;15.70;93.00;;;;;;4948218;29;20027;-33
2022/06/15 01:22:14;;;;;;;3.00;2.00;;;15.70;93.00;;;;;;4947854;29;20023;-33
2022/06/15 01:25:00;;;;;;;2.70;1.85;;;15.60;93.00;;;;;;4947561;28;20027;-33
2022/06/15 01:27:41;;;;;;;4.78;1.85;;;15.60;93.10;;;;;;4947646;29;20487;-34
2022/06/15 01:30:39;;;;;;;3.70;1.60;;;15.60;93.10;;;;;;4947393;28;20414;-34
2022/06/15 01:33:20;;;;;;;3.45;1.70;;;15.60;93.20;;;;;;4866335;29;20685;-35
2022/06/15 01:35:51;;;;;;;2.70;1.90;;;15.50;93.20;;;;;;4933644;29;20027;-34
2022/06/15 01:38:34;;;;;;;2.92;1.90;;;15.50;93.30;;;;;;4947158;29;20023;-34
2022/06/15 01:41:10;;;;;;;1.98;1.50;;;15.50;93.40;;;;;;4947857;29;20041;-33
2022/06/15 01:43:44;;;;;;;4.00;1.60;;;15.50;93.40;;;;;;4946085;28;20518;-35
2022/06/15 01:46:09;;;;;;;2.97;1.73;;;15.40;93.50;;;;;;4949308;28;20023;-34
2022/06/15 01:48:38;;;;;;;3.60;2.10;;;15.40;93.50;;;;;;4950991;29;20050;-34
2022/06/15 01:51:12;;;;;;;6.72;2.28;;;15.40;93.60;;;;;;4950521;28;20027;-35
2022/06/15 01:53:44;;;;;;;3.63;1.90;;;15.30;93.60;;;;;;4951638;28;20027;-34
2022/06/15 01:56:16;;;;;;;3.90;1.95;;;15.30;93.60;;;;;;4951215;29;20096;-34
2022/06/15 01:58:47;;;;;;;5.60;2.00;;;15.30;93.60;;;;;;4950153;29;20019;-33
2022/06/15 02:01:18;;;;;;;3.75;1.83;;;15.30;93.60;;;;;;4950693;28;20410;-34
2022/06/15 02:04:02;;;;;;;3.90;2.00;;;15.30;93.70;;;;;;4951484;28;20028;-34
2022/06/15 02:06:59;;;;;;;3.15;1.88;;;15.30;93.70;;;;;;4949936;28;20059;-34
2022/06/15 02:09:33;;;;;;;3.05;1.60;;;15.30;93.70;;;;;;4941213;29;20085;-34
2022/06/15 02:12:02;;;;;;;1.85;1.40;;;15.20;93.70;;;;;;4950459;28;20029;-34
2022/06/15 02:14:38;;;;;;;4.20;2.10;;;15.20;93.80;;;;;;4951235;29;20027;-35
2022/06/15 02:17:10;;;;;;;3.00;1.73;;;15.20;93.80;;;;;;4951158;28;20058;-33
2022/06/15 02:19:41;;;;;;;2.92;1.55;;;15.20;93.80;;;;;;4940031;29;20034;-34
2022/06/15 02:22:12;;;;;;;3.30;1.77;;;15.10;93.80;;;;;;4951101;28;20035;-34
2022/06/15 02:24:43;;;;;;;3.53;1.83;;;15.20;93.90;;;;;;4951343;28;20024;-34
2022/06/15 02:27:11;;;;;;;3.05;1.70;;;15.10;93.90;;;;;;4950761;28;20062;-33
2022/06/15 02:29:38;;;;;;;4.57;1.88;;;15.10;94.00;;;;;;4950607;28;20035;-34
2022/06/15 02:32:09;;;;;;;4.00;1.77;;;15.10;94.00;;;;;;4950887;28;20027;-35
2022/06/15 02:34:35;;;;;;;2.97;1.80;;;15.10;94.00;;;;;;4949381;29;20114;-35
2022/06/15 02:37:01;;;;;;;3.92;1.70;;;15.10;94.00;;;;;;4951036;28;20364;-35
2022/06/15 02:39:26;;;;;;;3.22;1.60;;;15.10;94.10;;;;;;4950804;28;20070;-34
2022/06/15 02:42:01;;;;;;;4.57;1.70;;;15.00;94.10;;;;;;4950330;29;20055;-33
2022/06/15 02:44:30;;;;;;;4.00;1.50;;;15.00;94.10;;;;;;4949833;28;20039;-34
2022/06/15 02:46:56;;;;;;;3.92;1.73;;;15.00;94.10;;;;;;4950586;28;20038;-34
2022/06/15 02:49:22;;;;;;;3.65;1.65;;;15.00;94.10;;;;;;4949815;28;20086;-34
2022/06/15 02:51:55;;;;;;;2.85;1.58;;;15.00;94.20;;;;;;4950409;29;20031;-34
2022/06/15 02:54:32;;;;;;;3.15;1.58;;;15.00;94.20;;;;;;4949505;28;20046;-35
2022/06/15 02:56:58;;;;;;;4.88;1.73;;;14.90;94.20;;;;;;4950267;28;20430;-34
2022/06/15 02:59:23;;;;;;;2.78;1.63;;;14.90;94.30;;;;;;4950069;29;20027;-34
2022/06/15 03:01:49;;;;;;;4.05;1.80;;;14.90;94.30;;;;;;4949404;29;20027;-32
2022/06/15 03:04:15;;;;;;;2.90;1.45;;;14.90;94.30;;;;;;4950245;28;20020;-34
2022/06/15 03:06:40;;;;;;;6.07;1.70;;;14.90;94.40;;;;;;4949955;29;20509;-35
2022/06/15 03:09:06;;;;;;;3.97;1.58;;;14.90;94.40;;;;;;4948893;29;20041;-34
2022/06/15 03:11:32;;;;;;;2.50;1.60;;;14.90;94.40;;;;;;4950134;29;20493;-34
2022/06/15 03:13:58;;;;;;;2.33;1.63;;;14.80;94.40;;;;;;4950300;28;20023;-34
2022/06/15 03:16:24;;;;;;;2.90;1.70;;;14.80;94.40;;;;;;4948802;28;20106;-34
2022/06/15 03:18:49;;;;;;;3.75;1.65;;;14.80;94.40;;;;;;4950269;29;20118;-33
2022/06/15 03:21:15;;;;;;;3.28;1.80;;;14.80;94.50;;;;;;4949878;29;20077;-35
2022/06/15 03:23:41;;;;;;;5.25;2.17;;;14.80;94.50;;;;;;4949110;28;20062;-34
2022/06/15 03:26:07;;;;;;;3.13;1.90;;;14.80;94.60;;;;;;4949582;29;20074;-35
2022/06/15 03:28:35;;;;;;;3.38;2.17;;;14.80;94.70;;;;;;4949612;29;20027;-35
2022/06/15 03:31:01;;;;;;;2.90;1.90;;;14.80;94.70;;;;;;4948822;28;20490;-34
2022/06/15 03:33:27;;;;;;;4.13;2.10;;;14.80;94.80;;;;;;4948869;28;20031;-33
2022/06/15 03:35:52;;;;;;;4.90;2.08;;;14.80;94.80;;;;;;4949744;29;20023;-34
2022/06/15 03:38:18;;;;;;;6.00;2.00;;;14.80;94.90;;;;;;4948436;28;20315;-33
2022/06/15 03:40:46;;;;;;;6.55;2.78;;;14.80;94.90;;;;;;4948940;28;20335;-34
2022/06/15 03:43:12;;;;;;;4.05;2.08;;;14.80;94.90;;;;;;4949106;28;20043;-35
2022/06/15 03:45:39;;;;;;;4.57;1.95;;;14.70;95.00;;;;;;4948715;29;20015;-34
2022/06/15 03:48:05;;;;;;;3.63;1.90;;;14.80;95.00;;;;;;4949743;28;20451;-34
2022/06/15 03:50:32;;;;;;;3.58;2.00;;;14.80;95.00;;;;;;4948627;29;20550;-34
2022/06/15 03:52:59;;;;;;;3.60;2.05;;;14.80;95.10;;;;;;4950017;28;20031;-33
2022/06/15 03:55:28;;;;;;;2.67;1.92;;;14.80;95.10;;;;;;4948740;29;20043;-35
2022/06/15 03:57:54;;;;;;;5.68;2.20;;;14.80;95.20;;;;;;4938646;29;20057;-33
2022/06/15 04:00:21;;;;;;;2.90;2.00;;;14.80;95.20;;;;;;4948773;28;20023;-34
2022/06/15 04:02:47;;;;;;;5.82;1.75;;;14.80;95.20;;;;;;4948502;28;20030;-33
2022/06/15 04:05:22;;;;;;;2.80;1.52;;;14.70;95.50;;;;;;4948832;29;20100;-33
2022/06/15 04:10:35;;;;;;;2.15;1.50;;;14.70;95.30;;;;;;4948071;28;20109;-34
2022/06/15 04:13:00;;;;;;;2.55;1.58;;;14.80;95.30;;;;;;4948141;29;20545;-35
2022/06/15 04:15:26;;;;;;;3.42;1.73;;;14.80;95.30;;;;;;4948714;28;20039;-33
2022/06/15 04:17:51;;;;;;;2.03;1.25;;;14.80;95.30;;;;;;4948859;29;20061;-34
2022/06/15 04:20:31;;;;;;;2.63;1.58;;;14.70;95.30;;;;;;4948087;29;20015;-34
2022/06/15 04:23:01;;;;;;;2.65;1.85;;;14.80;95.30;;;;;;4948848;29;20054;-35
2022/06/15 04:25:27;;;;;;;3.22;1.63;;;14.70;95.30;;;;;;4947464;28;20500;-35
2022/06/15 04:27:53;;;;;;;2.47;1.23;;;14.80;95.40;;;;;;4949052;29;20042;-34
2022/06/15 04:30:19;;;;;;;2.83;1.40;;;14.80;95.40;;;;;;4948888;29;20039;-33
2022/06/15 04:32:44;;;;;;;2.28;1.67;;;14.80;95.40;;;;;;4947282;29;20050;-34
2022/06/15 04:35:10;;;;;;;3.28;1.65;;;14.80;95.40;;;;;;4948278;29;20039;-34
2022/06/15 04:37:37;;;;;;;3.40;1.85;;;14.80;95.40;;;;;;4947977;28;20082;-34
2022/06/15 04:40:04;;;;;;;4.05;1.92;;;14.90;95.40;;;;;;4947911;28;20035;-34
2022/06/15 04:42:30;;;;;;;4.25;1.85;;;14.90;95.50;;;;;;4947686;29;20029;-35
2022/06/15 04:44:55;;;;;;;4.43;1.50;;;14.90;95.50;;;;;;4948567;29;20039;-34
2022/06/15 04:47:21;;;;;;;3.25;1.50;;;14.90;95.50;;;;;;4947462;29;20027;-33
2022/06/15 04:49:46;;;;;;;2.78;1.55;;;14.90;95.50;;;;;;4947962;29;20566;-34
2022/06/15 04:52:12;;;;;;;3.45;1.88;;;14.90;95.50;;;;;;4948092;29;20351;-34
2022/06/15 04:54:37;;;;;;;2.92;1.55;;;15.00;95.50;;;;;;4948057;29;20027;-34
2022/06/15 04:57:03;;;;;;;4.50;1.45;;;15.00;95.60;;;;;;4948661;28;20043;-34
2022/06/15 04:59:29;;;;;;;2.85;1.63;;;15.00;95.80;;;;;;4947489;29;20066;-34
2022/06/15 05:01:58;;;;;;;3.67;1.55;;;15.00;95.60;;;;;;4947709;29;20046;-34
2022/06/15 05:04:25;;;;;;;4.63;1.38;;;15.10;95.60;;;;;;4947381;28;20055;-34
2022/06/15 05:06:51;;;;;;;2.53;1.42;;;15.10;95.60;;;;;;4948381;28;20030;-33
2022/06/15 05:09:17;;;;;;;2.05;1.50;;;15.10;95.60;;;;;;4947067;29;20069;-34
2022/06/15 05:11:43;;;;;;;3.70;1.63;;;15.10;95.60;;;;;;4947688;29;20031;-34
2022/06/15 05:14:09;;;;;;;2.25;1.30;;;15.20;95.70;;;;;;4948044;28;20070;-34
2022/06/15 05:16:34;;;;;;;1.98;1.15;;;15.20;95.70;;;;;;4946803;28;20114;-35
2022/06/15 05:19:01;;;;;;;2.40;1.33;;;15.20;95.70;;;;;;4947949;29;20031;-34
2022/06/15 05:21:27;;;;;;;3.30;1.52;;;15.30;95.70;;;;;;4946419;28;20035;-34
2022/06/15 05:23:53;;;;;;;1.58;1.15;;;15.30;95.70;;;;;;4946602;28;20463;-35
2022/06/15 05:26:18;;;;;;;2.50;1.40;;;15.40;95.70;;;;;;4947764;28;20082;-34
2022/06/15 05:28:45;;;;;;;3.22;1.50;;;15.40;95.70;;;;;;4946381;28;20555;-34
2022/06/15 05:31:20;;;;;;;2.88;1.30;;;15.40;95.70;;;;;;4947886;28;20438;-34
2022/06/15 05:33:46;;;;;;;4.38;1.52;;;15.50;95.70;;;;;;4947744;28;20027;-35
2022/06/15 05:36:14;;;;;;;1.90;1.25;;;15.50;95.70;;;;;;4946926;28;20032;-34
2022/06/15 05:38:40;;;;;;;1.40;1.10;;;15.50;95.70;;;;;;4947356;28;20031;-33
2022/06/15 05:41:06;;;;;;;2.00;1.30;;;15.60;95.80;;;;;;4948015;29;20419;-34
2022/06/15 05:43:32;;;;;;;2.30;1.40;;;15.60;95.80;;;;;;4945990;28;20471;-34
2022/06/15 05:45:58;;;;;;;3.35;1.52;;;15.70;95.80;;;;;;4947325;28;20038;-33
2022/06/15 05:48:24;;;;;;;3.03;1.27;;;15.70;95.80;;;;;;4945153;28;20523;-33
2022/06/15 05:50:50;;;;;;;3.42;1.40;;;15.80;95.80;;;;;;4945570;28;20046;-34
2022/06/15 05:53:15;;;;;;;2.08;1.35;;;15.80;95.80;;;;;;4945088;28;20541;-34
2022/06/15 05:55:41;;;;;;;2.92;1.42;;;15.90;95.80;;;;;;4945591;29;20477;-35
2022/06/15 05:58:06;;;;;;;4.00;1.40;;;15.90;95.80;;;;;;4945974;29;20472;-34
2022/06/15 06:00:33;;;;;;;4.25;1.40;;;15.90;95.80;;;;;;4945255;29;20019;-33
2022/06/15 06:02:58;;;;;;;3.65;1.40;;;16.00;95.80;;;;;;4946205;29;20122;-34
2022/06/15 06:05:24;;;;;;;1.42;1.10;;;16.00;95.80;;;;;;4945708;28;20556;-34
2022/06/15 06:07:50;;;;;;;3.60;1.60;;;16.10;95.90;;;;;;4946843;28;20035;-35
2022/06/15 06:10:16;;;;;;;3.53;1.40;;;16.10;95.90;;;;;;4946654;28;20031;-35
2022/06/15 06:12:42;;;;;;;1.80;1.10;;;16.20;95.90;;;;;;4945694;28;20039;-34
2022/06/15 06:15:08;;;;;;;2.75;1.70;;;16.20;95.90;;;;;;4946848;28;20438;-34
2022/06/15 06:17:34;;;;;;;2.97;1.30;;;16.20;95.90;;;;;;4946244;29;20027;-34
2022/06/15 06:19:59;;;;;;;3.42;1.40;;;16.30;95.90;;;;;;4946127;28;20027;-33
2022/06/15 06:22:25;;;;;;;3.15;1.70;;;16.40;95.90;;;;;;4945199;29;20027;-34
2022/06/15 06:24:51;;;;;;;2.90;1.27;;;16.40;95.80;;;;;;4946125;29;20043;-35
2022/06/15 06:27:17;;;;;;;3.47;1.30;;;16.40;95.80;;;;;;4945745;29;20015;-34
2022/06/15 06:29:43;;;;;;;2.17;1.20;;;16.50;95.70;;;;;;4946924;29;20478;-33
2022/06/15 06:32:12;;;;;;;2.42;1.40;;;16.50;95.70;;;;;;4947893;28;20529;-34
2022/06/15 06:34:37;;;;;;;4.00;1.50;;;16.60;95.70;;;;;;4949033;28;20441;-33
2022/06/15 06:37:05;;;;;;;3.60;1.20;;;16.60;95.70;;;;;;4949336;29;20538;-34
2022/06/15 06:39:31;;;;;;;2.67;1.40;;;16.60;95.60;;;;;;4948041;28;20031;-35
2022/06/15 06:41:59;;;;;;;2.70;1.30;;;16.70;95.60;;;;;;4950505;28;20027;-33
2022/06/15 06:44:25;;;;;;;4.22;1.35;;;16.80;95.60;;;;;;4951695;28;20026;-34
2022/06/15 06:46:52;;;;;;;3.03;1.33;;;16.80;95.50;;;;;;4957068;28;20027;-34
2022/06/15 06:49:19;;;;;;;1.85;1.30;;;16.90;95.50;;;;;;4961367;28;20030;-35
2022/06/15 06:51:46;;;;;;;2.08;1.15;;;16.90;95.40;;;;;;4960519;28;20023;-34
2022/06/15 06:54:14;;;;;;;2.83;1.35;;;17.00;95.40;;;;;;4950244;28;20114;-34
2022/06/15 06:56:39;;;;;;;2.30;1.20;;;17.10;95.40;;;;;;4949695;29;20051;-39
2022/06/15 06:59:07;;;;;;;2.45;1.33;;;17.10;95.30;;;;;;4950119;29;20787;-33
2022/06/15 07:01:35;;;;;;;1.33;0.90;;;17.10;95.30;;;;;;4948457;28;20059;-35
2022/06/15 07:04:00;;;;;;;2.05;0.90;;;17.20;95.30;;;;;;4950538;29;20031;-34
2022/06/15 07:06:28;;;;;;;1.75;1.00;;;17.20;95.30;;;;;;4949431;29;20550;-33
2022/06/15 07:08:58;;;;;;;2.28;1.20;;;17.30;95.20;;;;;;4948691;29;20471;-33
2022/06/15 07:11:24;;;;;;;2.28;1.27;;;17.40;95.20;;;;;;4949659;28;20059;-34
2022/06/15 07:13:50;;;;;;;2.08;1.00;;;17.40;95.00;;;;;;4949989;29;20109;-35
2022/06/15 07:16:18;;;;;;;2.58;1.10;;;17.50;95.00;;;;;;4956631;28;20085;-35
2022/06/15 07:18:44;;;;;;;3.92;1.75;;;17.60;94.90;;;;;;4954243;28;20810;-32
2022/06/15 07:21:13;;;;;;;2.85;1.60;;;17.60;94.80;;;;;;4957398;28;20074;-33
2022/06/15 07:23:41;;;;;;;4.88;1.83;;;17.70;94.60;;;;;;4957320;28;20053;-34
2022/06/15 07:26:10;;;;;;;5.20;1.30;;;17.70;94.40;;;;;;4930929;29;20558;-34
2022/06/15 07:28:38;;;;;;;3.22;1.20;;;17.80;94.10;;;;;;4943000;29;20547;-34
2022/06/15 07:31:05;;;;;;;3.35;1.33;;;17.90;94.00;;;;;;4950044;28;20426;-34
2022/06/15 07:33:30;;;;;;;3.90;1.20;;;18.00;93.80;;;;;;4948623;28;20027;-34
2022/06/15 07:35:56;;;;;;;2.65;1.20;;;18.10;93.70;;;;;;4948879;29;20029;-36
2022/06/15 07:38:22;;;;;;;2.60;1.23;;;18.10;93.60;;;;;;4948545;29;20072;-34
2022/06/15 07:40:49;;;;;;;3.40;1.50;;;18.20;93.40;;;;;;4949296;29;20082;-35
2022/06/15 07:43:15;;;;;;;1.52;0.95;;;18.20;93.30;;;;;;4947499;28;20023;-35
2022/06/15 07:45:40;;;;;;;3.63;1.10;;;18.30;93.20;;;;;;4949368;29;20023;-35
2022/06/15 07:50:51;;;;;;;3.80;1.23;;;18.40;92.90;;;;;;4939865;29;20826;-34
2022/06/15 07:53:18;;;;;;;2.03;1.10;;;18.40;92.50;;;;;;4949019;28;20016;-33
2022/06/15 07:55:46;;;;;;;2.83;1.20;;;18.40;92.60;;;;;;4948958;28;20047;-36
2022/06/15 07:58:12;;;;;;;3.67;1.40;;;18.50;92.40;;;;;;4948572;28;20030;-34
2022/06/15 08:00:40;;;;;;;3.45;1.30;;;18.60;92.40;;;;;;4957097;28;20045;-34
2022/06/15 08:03:07;;;;;;;2.60;1.40;;;18.60;92.30;;;;;;4954653;28;20038;-36
2022/06/15 08:05:39;;;;;;;2.63;1.30;;;18.60;92.10;;;;;;4944656;29;20648;-35
2022/06/15 08:08:08;;;;;;;3.33;1.20;;;18.70;91.80;;;;;;4948735;28;20471;-35
2022/06/15 08:10:34;;;;;;;2.35;1.10;;;18.80;91.20;;;;;;4947915;28;20039;-35
2022/06/15 08:13:00;;;;;;;4.20;1.65;;;18.80;91.40;;;;;;4948984;28;20398;-34
2022/06/15 08:15:25;;;;;;;3.53;1.35;;;18.90;91.30;;;;;;4948065;28;20031;-34
2022/06/15 08:17:57;;;;;;;1.75;1.10;;;18.90;91.20;;;;;;4949299;29;20020;-35
2022/06/15 08:20:36;;;;;;;3.20;1.50;;;18.90;91.10;;;;;;4948731;28;20172;-34
2022/06/15 08:23:10;;;;;;;2.90;1.40;;;19.00;90.90;;;;;;4930065;29;20110;-36
2022/06/15 08:25:41;;;;;;;2.38;1.20;;;19.00;90.90;;;;;;4942842;29;20083;-35
2022/06/15 08:28:08;;;;;;;2.88;1.13;;;19.00;90.90;;;;;;4947043;28;20031;-35
2022/06/15 08:30:36;;;;;;;3.83;1.38;;;19.00;90.90;;;;;;4947732;28;20035;-35
2022/06/15 08:33:02;;;;;;;2.53;1.30;;;19.00;90.80;;;;;;4947919;28;20361;-35
2022/06/15 08:35:28;;;;;;;2.80;1.48;;;19.10;90.70;;;;;;4948293;28;20058;-34
2022/06/15 08:37:53;;;;;;;4.25;1.60;;;19.10;90.60;;;;;;4948532;29;20489;-35
2022/06/15 08:40:19;;;;;;;2.15;1.40;;;19.10;90.50;;;;;;4947059;29;20031;-35
2022/06/15 08:42:52;;;;;;;3.55;1.55;;;19.20;90.50;;;;;;4948576;28;20027;-35
2022/06/15 08:45:31;;;;;;;1.33;1.00;;;19.20;90.50;;;;;;4948529;29;20038;-34
2022/06/15 08:48:22;;;;;;;3.53;1.52;;;19.20;90.30;;;;;;4948153;28;20522;-34
2022/06/15 08:51:11;;;;;;;1.63;1.20;;;19.30;90.10;;;;;;4948098;28;20050;-33
2022/06/15 08:53:54;;;;;;;4.50;1.70;;;19.30;90.00;;;;;;4947023;28;20033;-33
2022/06/15 08:56:25;;;;;;;;;;;19.30;89.80;;;;;;4948584;28;20047;-35
2022/06/15 08:59:44;;;;;;;3.65;1.38;;;19.30;90.00;;;;;;4948493;28;19977;-35
2022/06/15 09:02:37;;;;;;;3.45;1.60;;;19.40;90.00;;;;;;4939793;28;20085;-35
2022/06/15 09:05:34;;;;;;;3.67;1.52;;;19.40;89.80;;;;;;4948923;28;20031;-36
2022/06/15 09:08:15;;;;;;;3.25;1.60;;;19.50;89.60;;;;;;4947862;28;20051;-37
2022/06/15 09:11:01;;;;;;;2.53;1.40;;;19.50;89.60;;;;;;4948103;28;20094;-34
2022/06/15 09:14:09;;;;;;;3.28;1.23;;;19.60;89.70;;;;;;4937709;29;20387;-34
2022/06/15 09:16:49;;;;;;;2.50;1.23;;;19.60;90.00;;;;;;4944533;28;20101;-34
2022/06/15 09:19:25;;;;;;;1.38;1.00;;;19.60;90.00;;;;;;4948055;28;20311;-34
2022/06/15 09:22:05;;;;;;;2.58;1.40;;;19.70;90.00;;;;;;4947550;28;20027;-35
2022/06/15 09:24:40;;;;;;;2.20;1.10;;;19.80;90.00;;;;;;4947938;28;20038;-33
2022/06/15 09:27:14;;;;;;;2.35;1.20;;;19.80;90.00;;;;;;4948224;28;20015;-34
2022/06/15 09:30:05;;;;;;;2.15;1.00;;;19.80;90.00;;;;;;4947199;28;20039;-34
2022/06/15 09:32:38;;;;;;;2.50;1.20;;;19.90;90.00;;;;;;4947246;29;20035;-34
2022/06/15 09:35:17;;;;;;;2.20;1.20;;;19.90;89.90;;;;;;4947461;28;20031;-35
2022/06/15 09:37:48;;;;;;;2.63;1.40;;;20.00;89.30;;;;;;4947682;29;20027;-36
2022/06/15 09:40:15;;;;;;;4.13;1.55;;;20.00;89.30;;;;;;4947641;28;20141;-35
2022/06/15 09:42:54;;;;;;;1.85;1.20;;;20.00;89.10;;;;;;4946942;28;20393;-35
2022/06/15 09:45:32;;;;;;;3.22;1.60;;;20.10;89.00;;;;;;4947630;28;20036;-37
2022/06/15 09:48:21;;;;;;;3.13;1.30;;;20.10;88.40;;;;;;4948050;28;20435;-35
2022/06/15 09:51:18;;;;;;;3.00;1.50;;;20.20;87.70;;;;;;4947125;28;20039;-35
2022/06/15 09:53:53;;;;;;;3.15;1.40;;;20.20;87.50;;;;;;4944139;29;20035;-35
2022/06/15 09:56:20;;;;;;;3.53;1.40;;;20.20;87.60;;;;;;4947139;29;20539;-35
2022/06/15 09:58:57;;;;;;;2.85;1.13;;;20.30;87.70;;;;;;4948131;29;20065;-33
2022/06/15 10:01:25;;;;;;;2.05;1.30;;;20.40;87.60;;;;;;4929013;29;20031;-34
2022/06/15 10:03:54;;;;;;;3.63;1.27;;;20.40;87.40;;;;;;4941765;29;20032;-34
2022/06/15 10:06:49;;;;;;;3.45;1.50;;;20.40;87.40;;;;;;4947434;28;20024;-35
2022/06/15 10:09:17;;;;;;;4.32;1.75;;;20.40;86.90;;;;;;4951027;28;20035;-35
2022/06/15 10:11:52;;;;;;;4.13;1.58;;;20.40;86.70;;;;;;4950642;29;20027;-34
2022/06/15 10:14:34;;;;;;;2.80;1.13;;;20.50;86.40;;;;;;4950636;29;20019;-34
2022/06/15 10:17:02;;;;;;;;;;;20.50;86.40;;;;;;4950593;29;20028;-34
2022/06/15 10:19:33;;;;;;;2.80;1.17;;;20.50;86.50;;;;;;4950430;28;19906;-36
2022/06/15 10:22:03;;;;;;;1.65;1.00;;;20.50;86.50;;;;;;4932391;29;20522;-35
2022/06/15 10:24:39;;;;;;;2.80;1.15;;;20.50;86.20;;;;;;4944690;29;20093;-35
2022/06/15 10:27:35;;;;;;;2.05;1.30;;;20.60;85.90;;;;;;4951574;28;20114;-34
2022/06/15 10:30:07;;;;;;;2.60;1.35;;;20.70;85.20;;;;;;4950035;28;20035;-35
2022/06/15 10:32:34;;;;;;;2.83;1.25;;;20.80;84.70;;;;;;4950148;29;20098;-35
2022/06/15 10:35:03;;;;;;;2.75;1.20;;;20.80;84.60;;;;;;4950966;28;20035;-35
2022/06/15 10:37:53;;;;;;;1.98;0.95;;;20.80;84.70;;;;;;4950311;29;20027;-35
2022/06/15 10:40:35;;;;;;;3.35;1.27;;;20.80;84.80;;;;;;4949978;29;20027;-35
2022/06/15 10:43:13;;;;;;;2.13;1.17;;;20.90;84.60;;;;;;4950622;29;20026;-34
2022/06/15 10:45:43;;;;;;;2.42;1.40;;;20.90;84.20;;;;;;4949351;29;20039;-34
2022/06/15 10:48:35;;;;;;;2.72;1.40;;;21.00;83.90;;;;;;4951137;29;20099;-34
2022/06/15 10:51:09;;;;;;;2.92;1.70;;;21.10;83.60;;;;;;4950920;28;20058;-34
2022/06/15 10:53:45;;;;;;;1.90;1.13;;;21.20;82.60;;;;;;4949194;28;20031;-33
2022/06/15 11:02:31;;;;;;;2.17;1.23;;;21.30;82.70;;;;;;4940980;29;20398;-34
2022/06/15 11:05:12;;;;;;;1.70;1.05;;;21.30;83.00;;;;;;4949958;28;20118;-35
2022/06/15 11:07:59;;;;;;;1.48;0.82;;;21.30;82.50;;;;;;4949775;28;20061;-34
2022/06/15 11:10:31;;;;;;;1.73;0.77;;;21.40;82.80;;;;;;4949365;28;20092;-34
2022/06/15 11:13:20;;;;;;;2.40;1.08;;;21.40;82.80;;;;;;4950037;28;20038;-34
2022/06/15 11:18:44;;;;;;;2.38;1.02;;;21.50;83.50;;;;;;4948930;28;20033;-34
2022/06/15 11:21:15;;;;;;;1.98;1.08;;;21.50;82.80;;;;;;4949456;28;20034;-35
2022/06/15 11:23:54;;;;;;;2.38;1.17;;;21.60;82.80;;;;;;4949497;28;20023;-35
2022/06/15 11:27:08;;;;;;;3.25;0.90;;;21.60;83.50;;;;;;4949416;28;20039;-35
2022/06/15 11:29:46;;;;;;;3.03;1.20;;;21.70;83.00;;;;;;4907143;29;20035;-34
2022/06/15 11:32:36;;;;;;;1.52;0.90;;;21.70;82.80;;;;;;4908248;29;20088;-35
2022/06/15 11:35:13;;;;;;;1.60;1.10;;;21.70;82.80;;;;;;4925439;29;20036;-34
2022/06/15 11:38:10;;;;;;;2.72;1.35;;;21.90;82.30;;;;;;4948423;29;20515;-34
2022/06/15 11:40:46;;;;;;;2.70;1.40;;;21.90;81.70;;;;;;4948885;28;20027;-34
2022/06/15 11:43:18;;;;;;;2.97;1.33;;;22.00;80.60;;;;;;4949039;28;20034;-35
2022/06/15 11:45:56;;;;;;;2.43;1.13;;;22.00;80.50;;;;;;4949788;28;20055;-34
2022/06/15 11:48:42;;;;;;;1.55;1.00;;;22.00;80.40;;;;;;4949233;28;20232;-34
2022/06/15 11:51:33;;;;;;;1.92;1.10;;;22.00;80.30;;;;;;4949382;28;20090;-34
2022/06/15 11:54:40;;;;;;;1.98;1.02;;;22.00;80.00;;;;;;4940453;29;20037;-33
2022/06/15 11:57:34;;;;;;;3.10;1.17;;;22.00;79.90;;;;;;4947595;29;20054;-33
2022/06/15 12:00:21;;;;;;;2.25;1.20;;;22.00;79.70;;;;;;4949401;29;20110;-34
2022/06/15 12:03:05;;;;;;;2.47;1.10;;;22.00;79.90;;;;;;4948492;28;20027;-34
2022/06/15 12:05:54;;;;;;;1.77;1.10;;;22.10;79.70;;;;;;4929967;29;20035;-34
2022/06/15 12:08:20;;;;;;;1.65;1.00;;;22.00;79.40;;;;;;4941113;28;20051;-34
2022/06/15 12:12:37;;;;;;;1.15;0.80;;;22.10;79.50;;;;;;4948363;28;20046;-35
2022/06/15 12:14:03;;;;;;;2.17;1.20;;;22.10;79.70;;;;;;4941027;28;20577;-35
2022/06/15 12:16:35;;;;;;;2.15;0.90;;;22.30;79.80;;;;;;4948657;29;20110;-35
2022/06/15 12:19:12;;;;;;;1.48;0.95;;;22.30;79.60;;;;;;4948663;28;20023;-35
2022/06/15 12:21:53;;;;;;;2.38;0.90;;;22.40;79.60;;;;;;4948731;28;20051;-34
2022/06/15 12:24:29;;;;;;;1.30;0.95;;;22.50;79.10;;;;;;4947949;29;20033;-35
2022/06/15 12:27:01;;;;;;;2.28;1.30;;;22.50;78.50;;;;;;4949449;28;20162;-34
2022/06/15 12:29:53;;;;;;;1.95;1.05;;;22.60;77.60;;;;;;4948513;28;20137;-35
2022/06/15 12:32:46;;;;;;;2.90;1.00;;;22.60;78.50;;;;;;4947439;28;20019;-35
2022/06/15 12:35:50;;;;;;;2.38;1.15;;;22.70;77.60;;;;;;4938951;29;20035;-34
2022/06/15 12:38:30;;;;;;;1.20;1.08;;;22.70;77.50;;;;;;4946482;29;20054;-34
2022/06/15 12:42:09;;;;;;;1.85;1.00;;;22.70;77.60;;;;;;4948788;28;20035;-34
2022/06/15 12:43:55;;;;;;;1.33;0.93;;;22.80;77.00;;;;;;4948043;29;20078;-35
2022/06/15 12:46:24;;;;;;;1.70;1.08;;;22.80;77.30;;;;;;4947365;28;20094;-36
2022/06/15 12:49:03;;;;;;;1.92;1.13;;;22.90;77.40;;;;;;4948079;28;20389;-34
2022/06/15 12:51:46;;;;;;;2.80;1.13;;;22.90;77.40;;;;;;4948499;28;20102;-34
2022/06/15 12:54:42;;;;;;;1.33;0.70;;;22.90;77.40;;;;;;4948124;28;20030;-35
2022/06/15 12:57:28;;;;;;;1.63;0.77;;;23.00;77.40;;;;;;4948525;28;20153;-34
2022/06/15 13:00:14;;;;;;;1.38;1.00;;;23.00;77.50;;;;;;4947318;28;20027;-35
2022/06/15 13:02:58;;;;;;;2.25;1.20;;;23.00;77.10;;;;;;4929395;29;20368;-34
2022/06/15 13:05:32;;;;;;;1.48;1.00;;;23.10;76.70;;;;;;4946874;29;20031;-34
2022/06/15 13:08:32;;;;;;;2.47;1.08;;;23.10;77.40;;;;;;4947333;28;20023;-36
2022/06/15 13:11:08;;;;;;;0.75;0.75;;;23.10;76.80;;;;;;4948058;29;20107;-34
2022/06/15 13:13:43;;;;;;;1.83;1.02;;;23.20;76.40;;;;;;4946751;28;20027;-34
2022/06/15 13:16:12;;;;;;;2.25;1.00;;;23.30;76.00;;;;;;4944995;29;20027;-36
2022/06/15 13:18:40;;;;;;;2.88;1.10;;;23.30;75.90;;;;;;4947798;28;20028;-35
2022/06/15 13:21:06;;;;;;;1.58;1.00;;;23.40;75.10;;;;;;4946269;29;20117;-33
2022/06/15 13:23:45;;;;;;;1.48;0.90;;;23.40;75.00;;;;;;4947596;28;20416;-34
2022/06/15 13:26:15;;;;;;;2.53;1.10;;;23.40;75.10;;;;;;4948250;28;20534;-35
2022/06/15 13:28:45;;;;;;;2.08;0.90;;;23.50;74.70;;;;;;4947044;28;20024;-35
2022/06/15 13:31:40;;;;;;;1.90;1.13;;;23.50;74.40;;;;;;4947323;28;20035;-33